Groton, South Dakota
Current Conditions -  °F | °C
As of 6:53 AM on Friday 19 Dec 2014 (Local Time) from KABR Reporting Station
Haze Haze  
Wind Chill: 16°   Ceiling: 400
Heat Index: 27°   Visibility: 6mi
Dew Point: 25°   Wind: 13mph
Humidity: 92%   Direction: 190°S
Pressure: 30.06"   Gusts: NA
Location:  45.45°N, 98.1°W
Report Text: KABR 191253Z AUTO 19011KT 6SM BR OVC004 M03/M04 A3006 RMK AO2 SLP198 T10281039
Loading
Personal Weather Stations






























Interactive Weather Map New forecast layout! Learn more

10-Day Weather Forecast

Advertisements
Track Severe Weather on mobile